Bullhead City Mohave Valley, Arizona
Current Conditions -  °F | °C
As of 12:56 AM on Tuesday 21 Oct 2014 (Local Time) from KEED Reporting Station
Clear Clear  
Wind Chill: 76°   Ceiling: Unl
Heat Index: 76°   Visibility: 10mi
Dew Point: 44°   Wind: 0mph
Humidity: 32%   Direction: NA
Pressure: 29.82"   Gusts: NA
Location:  34.91°N, 114.546°W
Report Text: KEED 210756Z AUTO 00000KT 10SM CLR 24/07 A2982 RMK AO2 SLP067 T02440067 403390200
Loading
Personal Weather Stations






























Interactive Weather Map
Tropical Storm Tracking
New forecast layout! Learn more

10-Day Weather Forecast

Advertisements
Track Severe Weather on mobile